sensor_id;sensor_type;location;lat;lon;timestamp;P1;durP1;ratioP1;P2;durP2;ratioP2
21905;SDS011;11117;48.644;9.006;2024-01-30T00:02:11;16.97;;;9.10;;
21905;SDS011;11117;48.644;9.006;2024-01-30T00:04:37;14.07;;;8.87;;
21905;SDS011;11117;48.644;9.006;2024-01-30T00:07:03;15.23;;;9.00;;
21905;SDS011;11117;48.644;9.006;2024-01-30T00:09:28;19.13;;;9.20;;
21905;SDS011;11117;48.644;9.006;2024-01-30T00:11:54;16.13;;;9.00;;
21905;SDS011;11117;48.644;9.006;2024-01-30T00:14:20;14.70;;;8.97;;
21905;SDS011;11117;48.644;9.006;2024-01-30T00:16:45;13.70;;;8.87;;
21905;SDS011;11117;48.644;9.006;2024-01-30T00:19:11;14.83;;;8.60;;
21905;SDS011;11117;48.644;9.006;2024-01-30T00:21:37;17.50;;;9.20;;
21905;SDS011;11117;48.644;9.006;2024-01-30T00:24:02;12.70;;;8.50;;
21905;SDS011;11117;48.644;9.006;2024-01-30T00:26:28;13.63;;;8.40;;
21905;SDS011;11117;48.644;9.006;2024-01-30T00:28:53;17.20;;;8.77;;
21905;SDS011;11117;48.644;9.006;2024-01-30T00:31:19;13.20;;;8.13;;
21905;SDS011;11117;48.644;9.006;2024-01-30T00:33:45;14.17;;;8.40;;
21905;SDS011;11117;48.644;9.006;2024-01-30T00:36:10;13.03;;;8.00;;
21905;SDS011;11117;48.644;9.006;2024-01-30T00:38:37;12.73;;;8.67;;
21905;SDS011;11117;48.644;9.006;2024-01-30T00:41:03;13.10;;;8.20;;
21905;SDS011;11117;48.644;9.006;2024-01-30T00:43:29;15.00;;;8.30;;
21905;SDS011;11117;48.644;9.006;2024-01-30T00:45:54;14.37;;;9.33;;
21905;SDS011;11117;48.644;9.006;2024-01-30T00:48:20;14.63;;;8.67;;
21905;SDS011;11117;48.644;9.006;2024-01-30T00:50:46;14.63;;;9.20;;
21905;SDS011;11117;48.644;9.006;2024-01-30T00:53:11;15.33;;;8.70;;
21905;SDS011;11117;48.644;9.006;2024-01-30T00:55:37;16.87;;;8.90;;
21905;SDS011;11117;48.644;9.006;2024-01-30T00:58:03;15.47;;;9.17;;
21905;SDS011;11117;48.644;9.006;2024-01-30T01:00:29;14.33;;;8.43;;
21905;SDS011;11117;48.644;9.006;2024-01-30T01:02:58;14.30;;;8.87;;
21905;SDS011;11117;48.644;9.006;2024-01-30T01:05:24;13.87;;;8.60;;
21905;SDS011;11117;48.644;9.006;2024-01-30T01:07:50;15.37;;;8.53;;
21905;SDS011;11117;48.644;9.006;2024-01-30T01:10:18;17.37;;;8.93;;
21905;SDS011;11117;48.644;9.006;2024-01-30T01:12:44;13.77;;;9.00;;
21905;SDS011;11117;48.644;9.006;2024-01-30T01:15:10;14.47;;;8.77;;
21905;SDS011;11117;48.644;9.006;2024-01-30T01:17:37;14.47;;;8.97;;
21905;SDS011;11117;48.644;9.006;2024-01-30T01:20:03;13.27;;;8.57;;
21905;SDS011;11117;48.644;9.006;2024-01-30T01:22:30;14.07;;;8.97;;
21905;SDS011;11117;48.644;9.006;2024-01-30T01:24:56;16.77;;;9.20;;
21905;SDS011;11117;48.644;9.006;2024-01-30T01:27:22;14.53;;;8.83;;
21905;SDS011;11117;48.644;9.006;2024-01-30T01:29:47;16.93;;;9.30;;
21905;SDS011;11117;48.644;9.006;2024-01-30T01:32:13;15.07;;;8.57;;
21905;SDS011;11117;48.644;9.006;2024-01-30T01:34:38;14.90;;;8.60;;
21905;SDS011;11117;48.644;9.006;2024-01-30T01:37:04;16.57;;;8.93;;
21905;SDS011;11117;48.644;9.006;2024-01-30T01:39:29;16.07;;;8.80;;
21905;SDS011;11117;48.644;9.006;2024-01-30T01:41:55;14.53;;;8.20;;
21905;SDS011;11117;48.644;9.006;2024-01-30T01:44:20;12.80;;;8.50;;
21905;SDS011;11117;48.644;9.006;2024-01-30T01:46:46;14.40;;;9.10;;
21905;SDS011;11117;48.644;9.006;2024-01-30T01:49:13;13.47;;;8.30;;
21905;SDS011;11117;48.644;9.006;2024-01-30T01:51:39;17.13;;;8.73;;
21905;SDS011;11117;48.644;9.006;2024-01-30T01:54:06;12.83;;;8.33;;
21905;SDS011;11117;48.644;9.006;2024-01-30T01:56:33;17.30;;;8.87;;
21905;SDS011;11117;48.644;9.006;2024-01-30T01:59:00;18.00;;;9.20;;
21905;SDS011;11117;48.644;9.006;2024-01-30T02:01:30;13.90;;;8.33;;
21905;SDS011;11117;48.644;9.006;2024-01-30T02:03:57;14.70;;;8.60;;
21905;SDS011;11117;48.644;9.006;2024-01-30T02:06:23;14.03;;;8.93;;
21905;SDS011;11117;48.644;9.006;2024-01-30T02:08:49;15.73;;;8.87;;
21905;SDS011;11117;48.644;9.006;2024-01-30T02:11:15;13.30;;;8.63;;
21905;SDS011;11117;48.644;9.006;2024-01-30T02:13:40;13.93;;;8.70;;
21905;SDS011;11117;48.644;9.006;2024-01-30T02:16:10;14.30;;;8.40;;
21905;SDS011;11117;48.644;9.006;2024-01-30T02:18:36;14.30;;;8.63;;
21905;SDS011;11117;48.644;9.006;2024-01-30T02:21:04;15.80;;;9.00;;
21905;SDS011;11117;48.644;9.006;2024-01-30T02:23:30;17.57;;;9.07;;
21905;SDS011;11117;48.644;9.006;2024-01-30T02:25:59;14.57;;;8.80;;
21905;SDS011;11117;48.644;9.006;2024-01-30T02:28:24;14.23;;;8.10;;
21905;SDS011;11117;48.644;9.006;2024-01-30T02:30:50;16.10;;;8.87;;
21905;SDS011;11117;48.644;9.006;2024-01-30T02:33:16;14.80;;;9.00;;
21905;SDS011;11117;48.644;9.006;2024-01-30T02:35:41;14.17;;;8.17;;
21905;SDS011;11117;48.644;9.006;2024-01-30T02:38:07;15.90;;;8.43;;
21905;SDS011;11117;48.644;9.006;2024-01-30T02:40:32;15.57;;;8.30;;
21905;SDS011;11117;48.644;9.006;2024-01-30T02:42:59;12.80;;;8.10;;
21905;SDS011;11117;48.644;9.006;2024-01-30T02:45:25;14.90;;;8.57;;
21905;SDS011;11117;48.644;9.006;2024-01-30T02:47:50;13.37;;;7.83;;
21905;SDS011;11117;48.644;9.006;2024-01-30T02:50:16;15.27;;;8.70;;
21905;SDS011;11117;48.644;9.006;2024-01-30T02:52:42;15.37;;;8.97;;
21905;SDS011;11117;48.644;9.006;2024-01-30T02:55:07;13.83;;;8.30;;
21905;SDS011;11117;48.644;9.006;2024-01-30T02:57:33;17.80;;;8.73;;
21905;SDS011;11117;48.644;9.006;2024-01-30T02:59:59;18.47;;;8.37;;
21905;SDS011;11117;48.644;9.006;2024-01-30T03:02:24;15.20;;;8.10;;
21905;SDS011;11117;48.644;9.006;2024-01-30T03:04:50;15.80;;;8.57;;
21905;SDS011;11117;48.644;9.006;2024-01-30T03:07:15;14.10;;;8.50;;
21905;SDS011;11117;48.644;9.006;2024-01-30T03:09:41;14.73;;;8.90;;
21905;SDS011;11117;48.644;9.006;2024-01-30T03:12:07;16.57;;;9.10;;
21905;SDS011;11117;48.644;9.006;2024-01-30T03:14:33;16.77;;;9.93;;
21905;SDS011;11117;48.644;9.006;2024-01-30T03:16:58;17.70;;;9.83;;
21905;SDS011;11117;48.644;9.006;2024-01-30T03:19:24;17.30;;;10.30;;
21905;SDS011;11117;48.644;9.006;2024-01-30T03:21:49;16.50;;;10.13;;
21905;SDS011;11117;48.644;9.006;2024-01-30T03:24:15;20.57;;;10.20;;
21905;SDS011;11117;48.644;9.006;2024-01-30T03:26:41;18.67;;;10.10;;
21905;SDS011;11117;48.644;9.006;2024-01-30T03:29:06;17.07;;;9.90;;
21905;SDS011;11117;48.644;9.006;2024-01-30T03:31:32;14.83;;;9.90;;
21905;SDS011;11117;48.644;9.006;2024-01-30T03:33:58;19.70;;;10.43;;
21905;SDS011;11117;48.644;9.006;2024-01-30T03:36:23;17.70;;;10.53;;
21905;SDS011;11117;48.644;9.006;2024-01-30T03:38:49;17.37;;;10.13;;
21905;SDS011;11117;48.644;9.006;2024-01-30T03:41:14;14.23;;;9.10;;
21905;SDS011;11117;48.644;9.006;2024-01-30T03:43:40;19.03;;;11.43;;
21905;SDS011;11117;48.644;9.006;2024-01-30T03:46:07;20.07;;;10.23;;
21905;SDS011;11117;48.644;9.006;2024-01-30T03:48:33;19.30;;;10.93;;
21905;SDS011;11117;48.644;9.006;2024-01-30T03:50:59;19.00;;;10.73;;
21905;SDS011;11117;48.644;9.006;2024-01-30T03:53:24;18.17;;;10.90;;
21905;SDS011;11117;48.644;9.006;2024-01-30T03:55:50;17.93;;;10.87;;
21905;SDS011;11117;48.644;9.006;2024-01-30T03:58:15;19.77;;;10.37;;
21905;SDS011;11117;48.644;9.006;2024-01-30T04:00:41;16.97;;;9.93;;
21905;SDS011;11117;48.644;9.006;2024-01-30T04:03:06;17.33;;;9.87;;
21905;SDS011;11117;48.644;9.006;2024-01-30T04:05:32;15.50;;;9.63;;
21905;SDS011;11117;48.644;9.006;2024-01-30T04:07:58;20.43;;;9.90;;
21905;SDS011;11117;48.644;9.006;2024-01-30T04:10:24;16.70;;;9.40;;
21905;SDS011;11117;48.644;9.006;2024-01-30T04:12:50;19.10;;;10.73;;
21905;SDS011;11117;48.644;9.006;2024-01-30T04:15:16;19.33;;;10.37;;
21905;SDS011;11117;48.644;9.006;2024-01-30T04:17:42;17.30;;;10.03;;
21905;SDS011;11117;48.644;9.006;2024-01-30T04:20:09;21.37;;;10.20;;
21905;SDS011;11117;48.644;9.006;2024-01-30T04:22:41;15.93;;;9.80;;
21905;SDS011;11117;48.644;9.006;2024-01-30T04:25:08;14.93;;;8.80;;
21905;SDS011;11117;48.644;9.006;2024-01-30T04:27:34;12.83;;;7.63;;
21905;SDS011;11117;48.644;9.006;2024-01-30T04:29:59;16.93;;;8.47;;
21905;SDS011;11117;48.644;9.006;2024-01-30T04:32:25;19.30;;;9.70;;
21905;SDS011;11117;48.644;9.006;2024-01-30T04:34:50;15.87;;;8.73;;
21905;SDS011;11117;48.644;9.006;2024-01-30T04:37:16;15.27;;;9.20;;
21905;SDS011;11117;48.644;9.006;2024-01-30T04:39:41;16.50;;;10.10;;
21905;SDS011;11117;48.644;9.006;2024-01-30T04:42:07;20.30;;;10.53;;
21905;SDS011;11117;48.644;9.006;2024-01-30T04:44:32;16.73;;;9.50;;
21905;SDS011;11117;48.644;9.006;2024-01-30T04:46:58;19.10;;;9.83;;
21905;SDS011;11117;48.644;9.006;2024-01-30T04:49:23;15.83;;;9.60;;
21905;SDS011;11117;48.644;9.006;2024-01-30T04:51:49;16.30;;;9.67;;
21905;SDS011;11117;48.644;9.006;2024-01-30T04:54:15;18.33;;;9.80;;
21905;SDS011;11117;48.644;9.006;2024-01-30T04:56:40;15.37;;;9.53;;
21905;SDS011;11117;48.644;9.006;2024-01-30T04:59:06;23.13;;;10.90;;
21905;SDS011;11117;48.644;9.006;2024-01-30T05:01:32;20.03;;;11.37;;
21905;SDS011;11117;48.644;9.006;2024-01-30T05:03:58;18.07;;;11.03;;
21905;SDS011;11117;48.644;9.006;2024-01-30T05:06:24;17.20;;;10.10;;
21905;SDS011;11117;48.644;9.006;2024-01-30T05:08:50;19.23;;;10.47;;
21905;SDS011;11117;48.644;9.006;2024-01-30T05:11:16;17.43;;;10.23;;
21905;SDS011;11117;48.644;9.006;2024-01-30T05:13:41;16.43;;;10.20;;
21905;SDS011;11117;48.644;9.006;2024-01-30T05:16:11;18.40;;;9.27;;
21905;SDS011;11117;48.644;9.006;2024-01-30T05:18:37;14.67;;;9.00;;
21905;SDS011;11117;48.644;9.006;2024-01-30T05:21:02;15.67;;;9.13;;
21905;SDS011;11117;48.644;9.006;2024-01-30T05:23:28;16.73;;;9.40;;
21905;SDS011;11117;48.644;9.006;2024-01-30T05:25:54;13.83;;;8.57;;
21905;SDS011;11117;48.644;9.006;2024-01-30T05:28:20;15.93;;;9.20;;
21905;SDS011;11117;48.644;9.006;2024-01-30T05:30:45;16.27;;;8.47;;
21905;SDS011;11117;48.644;9.006;2024-01-30T05:33:11;14.47;;;8.17;;
21905;SDS011;11117;48.644;9.006;2024-01-30T05:35:36;17.10;;;9.40;;
21905;SDS011;11117;48.644;9.006;2024-01-30T05:38:02;18.90;;;12.03;;
21905;SDS011;11117;48.644;9.006;2024-01-30T05:40:28;39.40;;;22.93;;
21905;SDS011;11117;48.644;9.006;2024-01-30T05:42:54;17.30;;;11.33;;
21905;SDS011;11117;48.644;9.006;2024-01-30T05:45:20;13.77;;;8.27;;
21905;SDS011;11117;48.644;9.006;2024-01-30T05:47:45;14.63;;;8.67;;
21905;SDS011;11117;48.644;9.006;2024-01-30T05:50:11;13.70;;;8.93;;
21905;SDS011;11117;48.644;9.006;2024-01-30T05:52:37;15.73;;;9.10;;
21905;SDS011;11117;48.644;9.006;2024-01-30T05:55:02;14.77;;;9.27;;
21905;SDS011;11117;48.644;9.006;2024-01-30T05:57:28;16.13;;;8.60;;
21905;SDS011;11117;48.644;9.006;2024-01-30T05:59:53;15.30;;;8.37;;
21905;SDS011;11117;48.644;9.006;2024-01-30T06:02:19;11.97;;;7.33;;
21905;SDS011;11117;48.644;9.006;2024-01-30T06:04:44;13.33;;;7.50;;
21905;SDS011;11117;48.644;9.006;2024-01-30T06:07:10;14.37;;;9.70;;
21905;SDS011;11117;48.644;9.006;2024-01-30T06:09:36;16.50;;;10.13;;
21905;SDS011;11117;48.644;9.006;2024-01-30T06:12:01;17.33;;;11.10;;
21905;SDS011;11117;48.644;9.006;2024-01-30T06:14:27;15.27;;;9.90;;
21905;SDS011;11117;48.644;9.006;2024-01-30T06:16:52;20.03;;;9.57;;
21905;SDS011;11117;48.644;9.006;2024-01-30T06:19:18;16.37;;;8.80;;
21905;SDS011;11117;48.644;9.006;2024-01-30T06:21:44;15.80;;;9.40;;
21905;SDS011;11117;48.644;9.006;2024-01-30T06:24:09;15.07;;;8.70;;
21905;SDS011;11117;48.644;9.006;2024-01-30T06:26:35;16.47;;;8.90;;
21905;SDS011;11117;48.644;9.006;2024-01-30T06:29:01;17.63;;;9.63;;
21905;SDS011;11117;48.644;9.006;2024-01-30T06:31:26;17.20;;;9.63;;
21905;SDS011;11117;48.644;9.006;2024-01-30T06:33:52;17.60;;;9.43;;
21905;SDS011;11117;48.644;9.006;2024-01-30T06:36:17;14.97;;;9.40;;
21905;SDS011;11117;48.644;9.006;2024-01-30T06:38:43;16.73;;;9.17;;
21905;SDS011;11117;48.644;9.006;2024-01-30T06:41:10;17.03;;;9.50;;
21905;SDS011;11117;48.644;9.006;2024-01-30T06:43:36;13.80;;;8.57;;
21905;SDS011;11117;48.644;9.006;2024-01-30T06:46:01;17.53;;;8.90;;
21905;SDS011;11117;48.644;9.006;2024-01-30T06:48:27;14.00;;;8.03;;
21905;SDS011;11117;48.644;9.006;2024-01-30T06:50:53;17.13;;;7.73;;
21905;SDS011;11117;48.644;9.006;2024-01-30T06:53:19;16.17;;;8.73;;
21905;SDS011;11117;48.644;9.006;2024-01-30T06:55:44;16.87;;;9.10;;
21905;SDS011;11117;48.644;9.006;2024-01-30T06:58:10;30.47;;;15.07;;
21905;SDS011;11117;48.644;9.006;2024-01-30T07:00:36;45.67;;;22.20;;
21905;SDS011;11117;48.644;9.006;2024-01-30T07:03:01;30.73;;;14.67;;
21905;SDS011;11117;48.644;9.006;2024-01-30T07:05:27;22.53;;;11.67;;
21905;SDS011;11117;48.644;9.006;2024-01-30T07:07:52;12.83;;;7.97;;
21905;SDS011;11117;48.644;9.006;2024-01-30T07:10:18;16.27;;;8.47;;
21905;SDS011;11117;48.644;9.006;2024-01-30T07:12:43;12.50;;;7.40;;
21905;SDS011;11117;48.644;9.006;2024-01-30T07:15:09;13.53;;;7.37;;
21905;SDS011;11117;48.644;9.006;2024-01-30T07:17:35;15.07;;;7.00;;
21905;SDS011;11117;48.644;9.006;2024-01-30T07:20:01;11.27;;;6.50;;
21905;SDS011;11117;48.644;9.006;2024-01-30T07:22:26;11.53;;;6.63;;
21905;SDS011;11117;48.644;9.006;2024-01-30T07:24:52;12.90;;;7.80;;
21905;SDS011;11117;48.644;9.006;2024-01-30T07:27:17;12.57;;;7.70;;
21905;SDS011;11117;48.644;9.006;2024-01-30T07:29:43;13.30;;;7.53;;
21905;SDS011;11117;48.644;9.006;2024-01-30T07:32:09;12.70;;;6.67;;
21905;SDS011;11117;48.644;9.006;2024-01-30T07:34:34;14.37;;;6.97;;
21905;SDS011;11117;48.644;9.006;2024-01-30T07:37:00;12.83;;;7.27;;
21905;SDS011;11117;48.644;9.006;2024-01-30T07:39:25;12.53;;;6.83;;
21905;SDS011;11117;48.644;9.006;2024-01-30T07:41:51;9.90;;;6.10;;
21905;SDS011;11117;48.644;9.006;2024-01-30T07:44:16;11.53;;;6.63;;
21905;SDS011;11117;48.644;9.006;2024-01-30T07:46:42;16.50;;;7.20;;
21905;SDS011;11117;48.644;9.006;2024-01-30T07:49:08;10.67;;;6.33;;
21905;SDS011;11117;48.644;9.006;2024-01-30T07:51:33;12.13;;;6.00;;
21905;SDS011;11117;48.644;9.006;2024-01-30T07:53:59;11.43;;;6.67;;
21905;SDS011;11117;48.644;9.006;2024-01-30T07:56:24;11.47;;;6.57;;
21905;SDS011;11117;48.644;9.006;2024-01-30T07:58:50;11.73;;;6.40;;
21905;SDS011;11117;48.644;9.006;2024-01-30T08:01:15;13.43;;;7.20;;
21905;SDS011;11117;48.644;9.006;2024-01-30T08:03:41;13.90;;;6.30;;
21905;SDS011;11117;48.644;9.006;2024-01-30T08:06:09;13.17;;;6.67;;
21905;SDS011;11117;48.644;9.006;2024-01-30T08:08:35;11.80;;;6.60;;
21905;SDS011;11117;48.644;9.006;2024-01-30T08:11:00;12.23;;;6.53;;
21905;SDS011;11117;48.644;9.006;2024-01-30T08:13:26;11.07;;;6.60;;
21905;SDS011;11117;48.644;9.006;2024-01-30T08:15:51;12.43;;;7.47;;
21905;SDS011;11117;48.644;9.006;2024-01-30T08:18:17;13.30;;;7.33;;
21905;SDS011;11117;48.644;9.006;2024-01-30T08:20:42;10.50;;;6.60;;
21905;SDS011;11117;48.644;9.006;2024-01-30T08:23:08;9.30;;;6.33;;
21905;SDS011;11117;48.644;9.006;2024-01-30T08:25:33;12.90;;;6.87;;
21905;SDS011;11117;48.644;9.006;2024-01-30T08:27:59;13.30;;;6.47;;
21905;SDS011;11117;48.644;9.006;2024-01-30T08:30:24;11.83;;;7.07;;
21905;SDS011;11117;48.644;9.006;2024-01-30T08:32:50;10.17;;;6.60;;
21905;SDS011;11117;48.644;9.006;2024-01-30T08:35:15;13.60;;;6.77;;
21905;SDS011;11117;48.644;9.006;2024-01-30T08:37:41;11.13;;;6.90;;
21905;SDS011;11117;48.644;9.006;2024-01-30T08:40:07;10.47;;;6.60;;
21905;SDS011;11117;48.644;9.006;2024-01-30T08:42:33;12.93;;;7.90;;
21905;SDS011;11117;48.644;9.006;2024-01-30T08:44:58;13.43;;;6.97;;
21905;SDS011;11117;48.644;9.006;2024-01-30T08:47:24;10.27;;;6.87;;
21905;SDS011;11117;48.644;9.006;2024-01-30T08:49:50;11.60;;;6.93;;
21905;SDS011;11117;48.644;9.006;2024-01-30T08:52:15;12.57;;;7.03;;
21905;SDS011;11117;48.644;9.006;2024-01-30T08:54:41;11.63;;;7.00;;
21905;SDS011;11117;48.644;9.006;2024-01-30T08:57:06;13.20;;;6.10;;
21905;SDS011;11117;48.644;9.006;2024-01-30T08:59:32;9.30;;;6.03;;
21905;SDS011;11117;48.644;9.006;2024-01-30T09:01:59;11.20;;;6.87;;
21905;SDS011;11117;48.644;9.006;2024-01-30T09:04:24;9.97;;;6.63;;
21905;SDS011;11117;48.644;9.006;2024-01-30T09:06:50;10.27;;;6.67;;
21905;SDS011;11117;48.644;9.006;2024-01-30T09:09:16;15.20;;;7.13;;
21905;SDS011;11117;48.644;9.006;2024-01-30T09:11:41;11.47;;;6.27;;
21905;SDS011;11117;48.644;9.006;2024-01-30T09:14:07;10.33;;;6.40;;
21905;SDS011;11117;48.644;9.006;2024-01-30T09:16:33;11.23;;;6.57;;
21905;SDS011;11117;48.644;9.006;2024-01-30T09:18:58;10.77;;;6.60;;
21905;SDS011;11117;48.644;9.006;2024-01-30T09:21:24;10.90;;;6.53;;
21905;SDS011;11117;48.644;9.006;2024-01-30T09:23:49;10.20;;;6.30;;
21905;SDS011;11117;48.644;9.006;2024-01-30T09:26:15;9.93;;;6.30;;
21905;SDS011;11117;48.644;9.006;2024-01-30T09:28:40;9.90;;;6.10;;
21905;SDS011;11117;48.644;9.006;2024-01-30T09:31:10;11.10;;;6.37;;
21905;SDS011;11117;48.644;9.006;2024-01-30T09:33:36;11.60;;;6.40;;
21905;SDS011;11117;48.644;9.006;2024-01-30T09:36:04;9.37;;;5.10;;
21905;SDS011;11117;48.644;9.006;2024-01-30T09:38:30;7.27;;;4.63;;
21905;SDS011;11117;48.644;9.006;2024-01-30T09:40:56;12.30;;;4.50;;
21905;SDS011;11117;48.644;9.006;2024-01-30T09:43:29;6.63;;;4.27;;
21905;SDS011;11117;48.644;9.006;2024-01-30T09:45:59;10.50;;;4.23;;
21905;SDS011;11117;48.644;9.006;2024-01-30T09:48:26;7.13;;;4.03;;
21905;SDS011;11117;48.644;9.006;2024-01-30T09:50:52;7.63;;;4.13;;
21905;SDS011;11117;48.644;9.006;2024-01-30T09:53:18;7.33;;;3.80;;
21905;SDS011;11117;48.644;9.006;2024-01-30T09:55:45;6.33;;;3.37;;
21905;SDS011;11117;48.644;9.006;2024-01-30T09:58:12;8.30;;;3.40;;
21905;SDS011;11117;48.644;9.006;2024-01-30T10:00:37;5.00;;;3.40;;
21905;SDS011;11117;48.644;9.006;2024-01-30T10:03:03;5.57;;;3.40;;
21905;SDS011;11117;48.644;9.006;2024-01-30T10:05:29;4.30;;;3.17;;
21905;SDS011;11117;48.644;9.006;2024-01-30T10:07:56;5.30;;;3.27;;
21905;SDS011;11117;48.644;9.006;2024-01-30T10:10:22;6.17;;;3.27;;
21905;SDS011;11117;48.644;9.006;2024-01-30T10:12:48;4.50;;;3.30;;
21905;SDS011;11117;48.644;9.006;2024-01-30T10:15:14;8.00;;;3.03;;
21905;SDS011;11117;48.644;9.006;2024-01-30T10:17:40;16.17;;;3.03;;
21905;SDS011;11117;48.644;9.006;2024-01-30T10:20:05;4.87;;;3.10;;
21905;SDS011;11117;48.644;9.006;2024-01-30T10:22:31;3.73;;;2.70;;
21905;SDS011;11117;48.644;9.006;2024-01-30T10:24:57;10.03;;;3.03;;
21905;SDS011;11117;48.644;9.006;2024-01-30T10:27:27;6.57;;;2.97;;
21905;SDS011;11117;48.644;9.006;2024-01-30T10:29:53;5.00;;;3.13;;
21905;SDS011;11117;48.644;9.006;2024-01-30T10:32:19;4.87;;;2.60;;
21905;SDS011;11117;48.644;9.006;2024-01-30T10:34:45;6.10;;;2.80;;
21905;SDS011;11117;48.644;9.006;2024-01-30T10:37:11;3.80;;;2.83;;
21905;SDS011;11117;48.644;9.006;2024-01-30T10:39:37;8.70;;;2.87;;
21905;SDS011;11117;48.644;9.006;2024-01-30T10:42:04;9.37;;;3.07;;
21905;SDS011;11117;48.644;9.006;2024-01-30T10:44:30;7.80;;;2.70;;
21905;SDS011;11117;48.644;9.006;2024-01-30T10:47:03;4.77;;;2.90;;
21905;SDS011;11117;48.644;9.006;2024-01-30T10:49:31;5.07;;;2.60;;
21905;SDS011;11117;48.644;9.006;2024-01-30T10:51:58;6.80;;;2.90;;
21905;SDS011;11117;48.644;9.006;2024-01-30T10:54:24;5.10;;;2.50;;
21905;SDS011;11117;48.644;9.006;2024-01-30T10:56:51;5.00;;;2.50;;
21905;SDS011;11117;48.644;9.006;2024-01-30T10:59:18;10.20;;;2.60;;
21905;SDS011;11117;48.644;9.006;2024-01-30T11:01:45;5.80;;;2.53;;
21905;SDS011;11117;48.644;9.006;2024-01-30T11:04:10;11.07;;;3.00;;
21905;SDS011;11117;48.644;9.006;2024-01-30T11:06:42;6.03;;;2.63;;
21905;SDS011;11117;48.644;9.006;2024-01-30T11:09:10;5.67;;;2.63;;
21905;SDS011;11117;48.644;9.006;2024-01-30T11:11:55;6.23;;;2.80;;
21905;SDS011;11117;48.644;9.006;2024-01-30T11:14:31;3.90;;;2.60;;
21905;SDS011;11117;48.644;9.006;2024-01-30T11:16:57;4.87;;;2.57;;
21905;SDS011;11117;48.644;9.006;2024-01-30T11:19:26;11.90;;;6.80;;
21905;SDS011;11117;48.644;9.006;2024-01-30T11:21:53;5.97;;;3.33;;
21905;SDS011;11117;48.644;9.006;2024-01-30T11:24:19;9.10;;;4.70;;
21905;SDS011;11117;48.644;9.006;2024-01-30T11:26:45;11.87;;;5.83;;
21905;SDS011;11117;48.644;9.006;2024-01-30T11:29:13;6.10;;;3.53;;
21905;SDS011;11117;48.644;9.006;2024-01-30T11:31:38;4.63;;;3.00;;
21905;SDS011;11117;48.644;9.006;2024-01-30T11:34:04;5.73;;;2.90;;
21905;SDS011;11117;48.644;9.006;2024-01-30T11:36:30;4.03;;;2.70;;
21905;SDS011;11117;48.644;9.006;2024-01-30T11:39:00;4.27;;;2.80;;
21905;SDS011;11117;48.644;9.006;2024-01-30T11:41:26;5.23;;;2.73;;
21905;SDS011;11117;48.644;9.006;2024-01-30T11:43:53;7.00;;;3.60;;
21905;SDS011;11117;48.644;9.006;2024-01-30T11:46:19;5.10;;;3.00;;
21905;SDS011;11117;48.644;9.006;2024-01-30T11:48:45;4.50;;;2.87;;
21905;SDS011;11117;48.644;9.006;2024-01-30T11:51:12;5.50;;;3.10;;
21905;SDS011;11117;48.644;9.006;2024-01-30T11:53:38;4.73;;;2.67;;
21905;SDS011;11117;48.644;9.006;2024-01-30T11:56:08;5.80;;;2.53;;
21905;SDS011;11117;48.644;9.006;2024-01-30T11:58:34;3.70;;;2.70;;
21905;SDS011;11117;48.644;9.006;2024-01-30T12:00:59;6.10;;;2.87;;
21905;SDS011;11117;48.644;9.006;2024-01-30T12:03:25;4.27;;;3.00;;
21905;SDS011;11117;48.644;9.006;2024-01-30T12:05:57;4.60;;;3.03;;
21905;SDS011;11117;48.644;9.006;2024-01-30T12:08:23;7.60;;;3.07;;
21905;SDS011;11117;48.644;9.006;2024-01-30T12:10:55;9.90;;;3.07;;
21905;SDS011;11117;48.644;9.006;2024-01-30T12:13:23;7.97;;;2.97;;
21905;SDS011;11117;48.644;9.006;2024-01-30T12:15:50;4.80;;;3.00;;
21905;SDS011;11117;48.644;9.006;2024-01-30T12:18:18;6.77;;;2.83;;
21905;SDS011;11117;48.644;9.006;2024-01-30T12:20:44;7.73;;;3.40;;
21905;SDS011;11117;48.644;9.006;2024-01-30T12:23:09;4.97;;;3.07;;
21905;SDS011;11117;48.644;9.006;2024-01-30T12:25:37;5.57;;;2.70;;
21905;SDS011;11117;48.644;9.006;2024-01-30T12:28:03;5.17;;;2.77;;
21905;SDS011;11117;48.644;9.006;2024-01-30T12:30:29;5.17;;;3.07;;
21905;SDS011;11117;48.644;9.006;2024-01-30T12:32:54;6.73;;;3.10;;
21905;SDS011;11117;48.644;9.006;2024-01-30T12:35:20;5.57;;;3.33;;
21905;SDS011;11117;48.644;9.006;2024-01-30T12:37:46;4.30;;;3.10;;
21905;SDS011;11117;48.644;9.006;2024-01-30T12:40:13;9.33;;;3.10;;
21905;SDS011;11117;48.644;9.006;2024-01-30T12:42:43;7.57;;;3.60;;
21905;SDS011;11117;48.644;9.006;2024-01-30T12:45:11;6.93;;;3.00;;
21905;SDS011;11117;48.644;9.006;2024-01-30T12:47:38;6.27;;;3.07;;
21905;SDS011;11117;48.644;9.006;2024-01-30T12:50:04;4.43;;;3.00;;
21905;SDS011;11117;48.644;9.006;2024-01-30T12:52:29;4.80;;;3.00;;
21905;SDS011;11117;48.644;9.006;2024-01-30T12:54:55;5.57;;;2.80;;
21905;SDS011;11117;48.644;9.006;2024-01-30T12:57:21;19.90;;;12.43;;
21905;SDS011;11117;48.644;9.006;2024-01-30T12:59:47;5.47;;;3.67;;
21905;SDS011;11117;48.644;9.006;2024-01-30T13:02:14;7.50;;;3.60;;
21905;SDS011;11117;48.644;9.006;2024-01-30T13:04:40;6.20;;;3.27;;
21905;SDS011;11117;48.644;9.006;2024-01-30T13:07:05;4.37;;;2.87;;
21905;SDS011;11117;48.644;9.006;2024-01-30T13:09:31;4.47;;;3.33;;
21905;SDS011;11117;48.644;9.006;2024-01-30T13:11:57;8.57;;;2.70;;
21905;SDS011;11117;48.644;9.006;2024-01-30T13:14:24;5.50;;;2.67;;
21905;SDS011;11117;48.644;9.006;2024-01-30T13:16:49;4.53;;;2.90;;
21905;SDS011;11117;48.644;9.006;2024-01-30T13:19:15;4.27;;;2.80;;
21905;SDS011;11117;48.644;9.006;2024-01-30T13:21:40;4.83;;;2.87;;
21905;SDS011;11117;48.644;9.006;2024-01-30T13:24:06;6.73;;;2.63;;
21905;SDS011;11117;48.644;9.006;2024-01-30T13:26:32;5.77;;;2.80;;
21905;SDS011;11117;48.644;9.006;2024-01-30T13:28:58;4.17;;;2.73;;
21905;SDS011;11117;48.644;9.006;2024-01-30T13:31:23;5.77;;;2.80;;
21905;SDS011;11117;48.644;9.006;2024-01-30T13:33:49;5.87;;;3.07;;
21905;SDS011;11117;48.644;9.006;2024-01-30T13:36:15;6.37;;;3.10;;
21905;SDS011;11117;48.644;9.006;2024-01-30T13:38:40;7.23;;;3.10;;
21905;SDS011;11117;48.644;9.006;2024-01-30T13:41:10;6.30;;;2.93;;
21905;SDS011;11117;48.644;9.006;2024-01-30T13:43:36;7.77;;;2.90;;
21905;SDS011;11117;48.644;9.006;2024-01-30T13:46:01;5.77;;;3.00;;
21905;SDS011;11117;48.644;9.006;2024-01-30T13:48:27;6.93;;;3.28;;
21905;SDS011;11117;48.644;9.006;2024-01-30T13:50:53;7.47;;;2.90;;
21905;SDS011;11117;48.644;9.006;2024-01-30T13:53:21;5.00;;;2.90;;
21905;SDS011;11117;48.644;9.006;2024-01-30T13:55:47;7.90;;;3.20;;
21905;SDS011;11117;48.644;9.006;2024-01-30T13:58:12;5.18;;;2.85;;
21905;SDS011;11117;48.644;9.006;2024-01-30T14:00:38;4.90;;;2.90;;
21905;SDS011;11117;48.644;9.006;2024-01-30T14:03:03;9.87;;;3.27;;
21905;SDS011;11117;48.644;9.006;2024-01-30T14:05:29;8.15;;;3.10;;
21905;SDS011;11117;48.644;9.006;2024-01-30T14:07:55;6.60;;;3.40;;
21905;SDS011;11117;48.644;9.006;2024-01-30T14:10:22;7.40;;;3.00;;
21905;SDS011;11117;48.644;9.006;2024-01-30T14:12:48;4.63;;;3.05;;
21905;SDS011;11117;48.644;9.006;2024-01-30T14:15:14;4.70;;;3.10;;
21905;SDS011;11117;48.644;9.006;2024-01-30T14:17:40;5.55;;;3.13;;
21905;SDS011;11117;48.644;9.006;2024-01-30T14:20:05;5.32;;;3.15;;
21905;SDS011;11117;48.644;9.006;2024-01-30T14:22:32;4.60;;;2.80;;
21905;SDS011;11117;48.644;9.006;2024-01-30T14:24:59;11.60;;;3.45;;
21905;SDS011;11117;48.644;9.006;2024-01-30T14:27:28;7.72;;;3.50;;
21905;SDS011;11117;48.644;9.006;2024-01-30T14:29:53;6.50;;;3.30;;
21905;SDS011;11117;48.644;9.006;2024-01-30T14:32:19;5.78;;;3.10;;